sensor_id;sensor_type;location;lat;lon;timestamp;temperature;humidity
4564;DHT22;2294;51.818;8.484;2022-08-25T00:00:44;21.00;99.90
4564;DHT22;2294;51.818;8.484;2022-08-25T00:03:12;20.80;99.90
4564;DHT22;2294;51.818;8.484;2022-08-25T00:05:39;20.80;99.90
4564;DHT22;2294;51.818;8.484;2022-08-25T00:08:07;20.80;99.90
4564;DHT22;2294;51.818;8.484;2022-08-25T00:10:36;20.80;99.90
4564;DHT22;2294;51.818;8.484;2022-08-25T00:13:04;20.80;99.90
4564;DHT22;2294;51.818;8.484;2022-08-25T00:15:32;20.70;99.90
4564;DHT22;2294;51.818;8.484;2022-08-25T00:18:00;20.60;99.90
4564;DHT22;2294;51.818;8.484;2022-08-25T00:20:27;20.60;99.90
4564;DHT22;2294;51.818;8.484;2022-08-25T00:22:55;20.40;99.90
4564;DHT22;2294;51.818;8.484;2022-08-25T00:25:21;20.50;99.90
4564;DHT22;2294;51.818;8.484;2022-08-25T00:27:49;20.50;99.90
4564;DHT22;2294;51.818;8.484;2022-08-25T00:30:18;20.40;99.90
4564;DHT22;2294;51.818;8.484;2022-08-25T00:32:45;20.40;99.90
4564;DHT22;2294;51.818;8.484;2022-08-25T00:35:13;20.20;99.90
4564;DHT22;2294;51.818;8.484;2022-08-25T00:37:40;20.20;99.90
4564;DHT22;2294;51.818;8.484;2022-08-25T00:40:08;20.20;99.90
4564;DHT22;2294;51.818;8.484;2022-08-25T00:42:35;20.20;99.90
4564;DHT22;2294;51.818;8.484;2022-08-25T00:45:03;20.00;99.90
4564;DHT22;2294;51.818;8.484;2022-08-25T00:47:32;19.90;99.90
4564;DHT22;2294;51.818;8.484;2022-08-25T00:50:00;20.20;99.90
4564;DHT22;2294;51.818;8.484;2022-08-25T00:52:30;20.10;99.90
4564;DHT22;2294;51.818;8.484;2022-08-25T00:55:03;20.20;99.90
4564;DHT22;2294;51.818;8.484;2022-08-25T00:57:34;20.30;99.90
4564;DHT22;2294;51.818;8.484;2022-08-25T01:00:06;20.20;99.90
4564;DHT22;2294;51.818;8.484;2022-08-25T01:02:37;20.20;99.90
4564;DHT22;2294;51.818;8.484;2022-08-25T01:05:05;20.00;99.90
4564;DHT22;2294;51.818;8.484;2022-08-25T01:07:32;20.00;99.90
4564;DHT22;2294;51.818;8.484;2022-08-25T01:10:00;20.00;99.90
4564;DHT22;2294;51.818;8.484;2022-08-25T01:12:27;20.00;99.90
4564;DHT22;2294;51.818;8.484;2022-08-25T01:14:55;19.80;99.90
4564;DHT22;2294;51.818;8.484;2022-08-25T01:17:22;21.30;99.90
4564;DHT22;2294;51.818;8.484;2022-08-25T01:19:53;19.80;99.90
4564;DHT22;2294;51.818;8.484;2022-08-25T01:22:22;19.80;99.90
4564;DHT22;2294;51.818;8.484;2022-08-25T01:24:56;19.80;99.90
4564;DHT22;2294;51.818;8.484;2022-08-25T01:27:25;19.70;99.90
4564;DHT22;2294;51.818;8.484;2022-08-25T01:29:52;19.80;99.90
4564;DHT22;2294;51.818;8.484;2022-08-25T01:32:19;19.70;99.90
4564;DHT22;2294;51.818;8.484;2022-08-25T01:34:46;19.80;99.90
4564;DHT22;2294;51.818;8.484;2022-08-25T01:37:15;19.80;99.90
4564;DHT22;2294;51.818;8.484;2022-08-25T01:39:45;19.60;99.90
4564;DHT22;2294;51.818;8.484;2022-08-25T01:42:23;19.50;99.90
4564;DHT22;2294;51.818;8.484;2022-08-25T01:44:53;19.40;99.90
4564;DHT22;2294;51.818;8.484;2022-08-25T01:47:22;19.50;99.90
4564;DHT22;2294;51.818;8.484;2022-08-25T01:49:49;19.50;99.90
4564;DHT22;2294;51.818;8.484;2022-08-25T01:52:20;19.40;99.90
4564;DHT22;2294;51.818;8.484;2022-08-25T01:54:51;19.40;99.90
4564;DHT22;2294;51.818;8.484;2022-08-25T01:57:18;19.20;99.90
4564;DHT22;2294;51.818;8.484;2022-08-25T01:59:45;19.30;99.90
4564;DHT22;2294;51.818;8.484;2022-08-25T02:02:12;19.20;99.90
4564;DHT22;2294;51.818;8.484;2022-08-25T02:04:39;19.20;99.90
4564;DHT22;2294;51.818;8.484;2022-08-25T02:07:07;19.10;99.90
4564;DHT22;2294;51.818;8.484;2022-08-25T02:09:35;19.00;99.90
4564;DHT22;2294;51.818;8.484;2022-08-25T02:12:05;19.00;99.90
4564;DHT22;2294;51.818;8.484;2022-08-25T02:14:34;19.00;99.90
4564;DHT22;2294;51.818;8.484;2022-08-25T02:17:02;18.90;99.90
4564;DHT22;2294;51.818;8.484;2022-08-25T02:19:30;19.00;99.90
4564;DHT22;2294;51.818;8.484;2022-08-25T02:21:57;19.10;99.90
4564;DHT22;2294;51.818;8.484;2022-08-25T02:24:24;19.00;99.90
4564;DHT22;2294;51.818;8.484;2022-08-25T02:26:51;18.90;99.90
4564;DHT22;2294;51.818;8.484;2022-08-25T02:29:20;18.90;99.90
4564;DHT22;2294;51.818;8.484;2022-08-25T02:31:47;18.80;99.90
4564;DHT22;2294;51.818;8.484;2022-08-25T02:34:14;18.80;99.90
4564;DHT22;2294;51.818;8.484;2022-08-25T02:36:41;18.90;99.90
4564;DHT22;2294;51.818;8.484;2022-08-25T02:39:09;18.80;99.90
4564;DHT22;2294;51.818;8.484;2022-08-25T02:41:37;18.80;99.90
4564;DHT22;2294;51.818;8.484;2022-08-25T02:44:06;18.80;99.90
4564;DHT22;2294;51.818;8.484;2022-08-25T02:46:35;18.80;99.90
4564;DHT22;2294;51.818;8.484;2022-08-25T02:49:03;18.80;99.90
4564;DHT22;2294;51.818;8.484;2022-08-25T02:51:30;18.70;99.90
4564;DHT22;2294;51.818;8.484;2022-08-25T02:53:59;18.50;99.90
4564;DHT22;2294;51.818;8.484;2022-08-25T02:56:29;18.50;99.90
4564;DHT22;2294;51.818;8.484;2022-08-25T02:58:56;18.50;99.90
4564;DHT22;2294;51.818;8.484;2022-08-25T03:01:23;18.40;99.90
4564;DHT22;2294;51.818;8.484;2022-08-25T03:03:51;18.50;99.90
4564;DHT22;2294;51.818;8.484;2022-08-25T03:06:20;18.40;99.90
4564;DHT22;2294;51.818;8.484;2022-08-25T03:08:49;18.30;99.90
4564;DHT22;2294;51.818;8.484;2022-08-25T03:11:16;18.10;99.90
4564;DHT22;2294;51.818;8.484;2022-08-25T03:13:44;18.10;99.90
4564;DHT22;2294;51.818;8.484;2022-08-25T03:16:11;18.10;99.90
4564;DHT22;2294;51.818;8.484;2022-08-25T03:18:40;18.10;99.90
4564;DHT22;2294;51.818;8.484;2022-08-25T03:21:10;18.10;99.90
4564;DHT22;2294;51.818;8.484;2022-08-25T03:23:38;18.10;99.90
4564;DHT22;2294;51.818;8.484;2022-08-25T03:26:05;17.90;99.90
4564;DHT22;2294;51.818;8.484;2022-08-25T03:28:50;17.90;99.90
4564;DHT22;2294;51.818;8.484;2022-08-25T03:31:17;17.80;99.90
4564;DHT22;2294;51.818;8.484;2022-08-25T03:33:44;17.80;99.90
4564;DHT22;2294;51.818;8.484;2022-08-25T03:36:12;17.70;99.90
4564;DHT22;2294;51.818;8.484;2022-08-25T03:38:39;17.60;99.90
4564;DHT22;2294;51.818;8.484;2022-08-25T03:41:14;17.50;99.90
4564;DHT22;2294;51.818;8.484;2022-08-25T03:43:42;17.50;99.90
4564;DHT22;2294;51.818;8.484;2022-08-25T03:46:16;17.60;99.90
4564;DHT22;2294;51.818;8.484;2022-08-25T03:48:43;17.70;99.90
4564;DHT22;2294;51.818;8.484;2022-08-25T03:51:17;17.80;99.90
4564;DHT22;2294;51.818;8.484;2022-08-25T03:53:44;18.00;99.90
4564;DHT22;2294;51.818;8.484;2022-08-25T03:56:11;18.00;99.90
4564;DHT22;2294;51.818;8.484;2022-08-25T03:58:38;18.00;99.90
4564;DHT22;2294;51.818;8.484;2022-08-25T04:01:05;18.10;99.90
4564;DHT22;2294;51.818;8.484;2022-08-25T04:03:32;18.00;99.90
4564;DHT22;2294;51.818;8.484;2022-08-25T04:06:00;17.90;99.90
4564;DHT22;2294;51.818;8.484;2022-08-25T04:08:28;18.10;99.90
4564;DHT22;2294;51.818;8.484;2022-08-25T04:10:55;18.10;99.90
4564;DHT22;2294;51.818;8.484;2022-08-25T04:13:22;17.90;99.90
4564;DHT22;2294;51.818;8.484;2022-08-25T04:15:49;17.80;99.90
4564;DHT22;2294;51.818;8.484;2022-08-25T04:18:16;17.80;99.90
4564;DHT22;2294;51.818;8.484;2022-08-25T04:20:44;17.70;99.90
4564;DHT22;2294;51.818;8.484;2022-08-25T04:23:12;17.70;99.90
4564;DHT22;2294;51.818;8.484;2022-08-25T04:25:40;17.70;99.90
4564;DHT22;2294;51.818;8.484;2022-08-25T04:28:08;17.60;99.90
4564;DHT22;2294;51.818;8.484;2022-08-25T04:30:35;17.70;99.90
4564;DHT22;2294;51.818;8.484;2022-08-25T04:33:02;17.80;99.90
4564;DHT22;2294;51.818;8.484;2022-08-25T04:35:29;18.00;99.90
4564;DHT22;2294;51.818;8.484;2022-08-25T04:37:56;18.00;99.90
4564;DHT22;2294;51.818;8.484;2022-08-25T04:40:23;17.90;99.90
4564;DHT22;2294;51.818;8.484;2022-08-25T04:42:52;17.90;99.90
4564;DHT22;2294;51.818;8.484;2022-08-25T04:45:19;17.80;99.90
4564;DHT22;2294;51.818;8.484;2022-08-25T04:47:46;17.80;99.90
4564;DHT22;2294;51.818;8.484;2022-08-25T04:50:13;17.80;99.90
4564;DHT22;2294;51.818;8.484;2022-08-25T04:52:40;17.80;99.90
4564;DHT22;2294;51.818;8.484;2022-08-25T04:55:07;17.80;99.90
4564;DHT22;2294;51.818;8.484;2022-08-25T04:57:34;17.80;99.90
4564;DHT22;2294;51.818;8.484;2022-08-25T05:00:04;17.80;99.90
4564;DHT22;2294;51.818;8.484;2022-08-25T05:02:31;17.80;99.90
4564;DHT22;2294;51.818;8.484;2022-08-25T05:04:58;17.80;99.90
4564;DHT22;2294;51.818;8.484;2022-08-25T05:07:26;17.80;99.90
4564;DHT22;2294;51.818;8.484;2022-08-25T05:09:53;17.80;99.90
4564;DHT22;2294;51.818;8.484;2022-08-25T05:12:20;17.90;99.90
4564;DHT22;2294;51.818;8.484;2022-08-25T05:14:47;18.00;99.90
4564;DHT22;2294;51.818;8.484;2022-08-25T05:17:15;18.00;99.90
4564;DHT22;2294;51.818;8.484;2022-08-25T05:19:42;17.90;99.90
4564;DHT22;2294;51.818;8.484;2022-08-25T05:22:09;18.00;99.90
4564;DHT22;2294;51.818;8.484;2022-08-25T05:24:36;18.00;99.90
4564;DHT22;2294;51.818;8.484;2022-08-25T05:27:04;18.10;99.90
4564;DHT22;2294;51.818;8.484;2022-08-25T05:29:31;18.20;99.90
4564;DHT22;2294;51.818;8.484;2022-08-25T05:31:58;18.20;99.90
4564;DHT22;2294;51.818;8.484;2022-08-25T05:34:26;18.40;99.90
4564;DHT22;2294;51.818;8.484;2022-08-25T05:36:54;18.40;99.90
4564;DHT22;2294;51.818;8.484;2022-08-25T05:41:53;18.40;99.90
4564;DHT22;2294;51.818;8.484;2022-08-25T05:44:20;18.60;99.90
4564;DHT22;2294;51.818;8.484;2022-08-25T05:46:48;18.70;99.90
4564;DHT22;2294;51.818;8.484;2022-08-25T05:49:15;18.80;99.90
4564;DHT22;2294;51.818;8.484;2022-08-25T05:51:43;18.90;99.90
4564;DHT22;2294;51.818;8.484;2022-08-25T05:54:10;19.00;99.90
4564;DHT22;2294;51.818;8.484;2022-08-25T05:56:37;19.20;99.90
4564;DHT22;2294;51.818;8.484;2022-08-25T05:59:04;19.20;99.90
4564;DHT22;2294;51.818;8.484;2022-08-25T06:01:31;19.20;99.90
4564;DHT22;2294;51.818;8.484;2022-08-25T06:04:16;19.30;99.90
4564;DHT22;2294;51.818;8.484;2022-08-25T06:06:46;19.50;99.90
4564;DHT22;2294;51.818;8.484;2022-08-25T06:09:14;19.60;99.90
4564;DHT22;2294;51.818;8.484;2022-08-25T06:11:40;19.70;99.90
4564;DHT22;2294;51.818;8.484;2022-08-25T06:14:08;19.80;99.90
4564;DHT22;2294;51.818;8.484;2022-08-25T06:16:35;19.90;99.90
4564;DHT22;2294;51.818;8.484;2022-08-25T06:19:03;20.10;99.90
4564;DHT22;2294;51.818;8.484;2022-08-25T06:21:30;20.10;99.90
4564;DHT22;2294;51.818;8.484;2022-08-25T06:23:58;20.20;99.90
4564;DHT22;2294;51.818;8.484;2022-08-25T06:26:25;20.30;99.90
4564;DHT22;2294;51.818;8.484;2022-08-25T06:28:52;20.40;99.90
4564;DHT22;2294;51.818;8.484;2022-08-25T06:31:20;20.50;99.90
4564;DHT22;2294;51.818;8.484;2022-08-25T06:33:47;20.60;99.90
4564;DHT22;2294;51.818;8.484;2022-08-25T06:36:15;20.60;99.90
4564;DHT22;2294;51.818;8.484;2022-08-25T06:38:42;20.80;99.90
4564;DHT22;2294;51.818;8.484;2022-08-25T06:41:11;20.70;99.90
4564;DHT22;2294;51.818;8.484;2022-08-25T06:43:39;20.80;99.90
4564;DHT22;2294;51.818;8.484;2022-08-25T06:46:08;20.90;99.90
4564;DHT22;2294;51.818;8.484;2022-08-25T06:48:35;20.90;99.90
4564;DHT22;2294;51.818;8.484;2022-08-25T06:51:05;21.00;99.90
4564;DHT22;2294;51.818;8.484;2022-08-25T06:53:32;21.20;99.90
4564;DHT22;2294;51.818;8.484;2022-08-25T06:55:59;21.40;99.90
4564;DHT22;2294;51.818;8.484;2022-08-25T06:58:28;21.50;99.90
4564;DHT22;2294;51.818;8.484;2022-08-25T07:00:55;21.50;99.90
4564;DHT22;2294;51.818;8.484;2022-08-25T07:03:22;21.60;99.90
4564;DHT22;2294;51.818;8.484;2022-08-25T07:05:51;21.70;99.90
4564;DHT22;2294;51.818;8.484;2022-08-25T07:08:18;21.80;99.90
4564;DHT22;2294;51.818;8.484;2022-08-25T07:10:46;21.80;99.90
4564;DHT22;2294;51.818;8.484;2022-08-25T07:13:13;21.90;99.90
4564;DHT22;2294;51.818;8.484;2022-08-25T07:15:42;21.90;99.90
4564;DHT22;2294;51.818;8.484;2022-08-25T07:18:10;22.10;99.90
4564;DHT22;2294;51.818;8.484;2022-08-25T07:20:37;22.20;99.90
4564;DHT22;2294;51.818;8.484;2022-08-25T07:23:05;22.20;99.90
4564;DHT22;2294;51.818;8.484;2022-08-25T07:25:33;22.20;99.90
4564;DHT22;2294;51.818;8.484;2022-08-25T07:28:01;23.70;99.90
4564;DHT22;2294;51.818;8.484;2022-08-25T07:30:28;22.40;99.90
4564;DHT22;2294;51.818;8.484;2022-08-25T07:32:56;22.60;99.90
4564;DHT22;2294;51.818;8.484;2022-08-25T07:35:23;22.60;99.90
4564;DHT22;2294;51.818;8.484;2022-08-25T07:37:51;22.80;99.90
4564;DHT22;2294;51.818;8.484;2022-08-25T07:40:22;22.80;99.90
4564;DHT22;2294;51.818;8.484;2022-08-25T07:42:51;23.00;99.90
4564;DHT22;2294;51.818;8.484;2022-08-25T07:45:20;23.00;99.90
4564;DHT22;2294;51.818;8.484;2022-08-25T07:47:49;23.10;99.90
4564;DHT22;2294;51.818;8.484;2022-08-25T07:50:22;23.10;99.90
4564;DHT22;2294;51.818;8.484;2022-08-25T07:52:50;23.30;99.90
4564;DHT22;2294;51.818;8.484;2022-08-25T07:55:17;23.20;99.90
4564;DHT22;2294;51.818;8.484;2022-08-25T07:57:44;23.20;99.90
4564;DHT22;2294;51.818;8.484;2022-08-25T08:00:13;23.30;99.90
4564;DHT22;2294;51.818;8.484;2022-08-25T08:02:41;23.50;99.90
4564;DHT22;2294;51.818;8.484;2022-08-25T08:05:09;23.60;99.90
4564;DHT22;2294;51.818;8.484;2022-08-25T08:07:38;23.60;99.90
4564;DHT22;2294;51.818;8.484;2022-08-25T08:10:08;23.70;99.90
4564;DHT22;2294;51.818;8.484;2022-08-25T08:12:35;23.70;99.90
4564;DHT22;2294;51.818;8.484;2022-08-25T08:15:03;24.00;99.90
4564;DHT22;2294;51.818;8.484;2022-08-25T08:17:30;24.10;99.90
4564;DHT22;2294;51.818;8.484;2022-08-25T08:19:57;24.20;99.90
4564;DHT22;2294;51.818;8.484;2022-08-25T08:22:24;24.20;99.90
4564;DHT22;2294;51.818;8.484;2022-08-25T08:24:53;24.30;99.90
4564;DHT22;2294;51.818;8.484;2022-08-25T08:27:20;24.30;99.90
4564;DHT22;2294;51.818;8.484;2022-08-25T08:29:47;24.40;99.90
4564;DHT22;2294;51.818;8.484;2022-08-25T08:32:14;24.40;99.90
4564;DHT22;2294;51.818;8.484;2022-08-25T08:34:43;24.50;99.90
4564;DHT22;2294;51.818;8.484;2022-08-25T08:37:10;24.60;99.90
4564;DHT22;2294;51.818;8.484;2022-08-25T08:39:37;24.70;99.90
4564;DHT22;2294;51.818;8.484;2022-08-25T08:42:16;24.80;99.90
4564;DHT22;2294;51.818;8.484;2022-08-25T08:45:10;24.70;99.90
4564;DHT22;2294;51.818;8.484;2022-08-25T08:48:05;24.80;99.90
4564;DHT22;2294;51.818;8.484;2022-08-25T08:50:41;25.00;99.90
4564;DHT22;2294;51.818;8.484;2022-08-25T08:53:12;25.10;99.90
4564;DHT22;2294;51.818;8.484;2022-08-25T08:55:42;25.00;99.90
4564;DHT22;2294;51.818;8.484;2022-08-25T08:58:15;25.00;99.90
4564;DHT22;2294;51.818;8.484;2022-08-25T09:00:46;25.20;99.90
4564;DHT22;2294;51.818;8.484;2022-08-25T09:03:23;25.30;99.90
4564;DHT22;2294;51.818;8.484;2022-08-25T09:05:55;25.30;99.90
4564;DHT22;2294;51.818;8.484;2022-08-25T09:08:22;25.40;99.90
4564;DHT22;2294;51.818;8.484;2022-08-25T09:10:57;25.50;99.90
4564;DHT22;2294;51.818;8.484;2022-08-25T09:13:37;25.60;99.90
4564;DHT22;2294;51.818;8.484;2022-08-25T09:16:11;25.70;99.90
4564;DHT22;2294;51.818;8.484;2022-08-25T09:19:06;25.60;99.90
4564;DHT22;2294;51.818;8.484;2022-08-25T09:21:42;25.80;99.90
4564;DHT22;2294;51.818;8.484;2022-08-25T09:24:23;25.70;99.90
4564;DHT22;2294;51.818;8.484;2022-08-25T09:27:01;25.80;99.90
4564;DHT22;2294;51.818;8.484;2022-08-25T09:29:43;26.00;99.90
4564;DHT22;2294;51.818;8.484;2022-08-25T09:32:14;25.80;99.90
4564;DHT22;2294;51.818;8.484;2022-08-25T09:34:42;25.90;99.90
4564;DHT22;2294;51.818;8.484;2022-08-25T09:37:10;26.00;99.90
4564;DHT22;2294;51.818;8.484;2022-08-25T09:39:39;26.20;99.90
4564;DHT22;2294;51.818;8.484;2022-08-25T09:42:07;26.50;99.90
4564;DHT22;2294;51.818;8.484;2022-08-25T09:44:40;26.40;99.90
4564;DHT22;2294;51.818;8.484;2022-08-25T09:47:18;26.20;99.90
4564;DHT22;2294;51.818;8.484;2022-08-25T09:49:48;26.10;99.90
4564;DHT22;2294;51.818;8.484;2022-08-25T09:52:20;26.20;99.90
4564;DHT22;2294;51.818;8.484;2022-08-25T09:54:48;26.40;99.90
4564;DHT22;2294;51.818;8.484;2022-08-25T09:57:32;26.50;99.90
4564;DHT22;2294;51.818;8.484;2022-08-25T10:00:12;26.50;99.90
4564;DHT22;2294;51.818;8.484;2022-08-25T10:02:41;26.40;99.90
4564;DHT22;2294;51.818;8.484;2022-08-25T10:05:21;26.50;99.90
4564;DHT22;2294;51.818;8.484;2022-08-25T10:07:51;26.70;99.90
4564;DHT22;2294;51.818;8.484;2022-08-25T10:10:24;27.00;99.90
4564;DHT22;2294;51.818;8.484;2022-08-25T10:12:51;27.00;99.90
4564;DHT22;2294;51.818;8.484;2022-08-25T10:15:24;26.80;99.90
4564;DHT22;2294;51.818;8.484;2022-08-25T10:17:52;26.90;99.90
4564;DHT22;2294;51.818;8.484;2022-08-25T10:20:23;27.30;99.90
4564;DHT22;2294;51.818;8.484;2022-08-25T10:22:51;27.10;99.90
4564;DHT22;2294;51.818;8.484;2022-08-25T10:25:23;27.40;99.90
4564;DHT22;2294;51.818;8.484;2022-08-25T10:27:59;27.40;99.90
4564;DHT22;2294;51.818;8.484;2022-08-25T10:30:47;27.40;99.90
4564;DHT22;2294;51.818;8.484;2022-08-25T10:33:25;27.50;99.90
4564;DHT22;2294;51.818;8.484;2022-08-25T10:35:58;27.40;99.90
4564;DHT22;2294;51.818;8.484;2022-08-25T10:38:35;27.80;99.90
4564;DHT22;2294;51.818;8.484;2022-08-25T10:41:19;27.80;99.90
4564;DHT22;2294;51.818;8.484;2022-08-25T10:43:53;27.60;99.90
4564;DHT22;2294;51.818;8.484;2022-08-25T10:46:32;27.90;99.90
4564;DHT22;2294;51.818;8.484;2022-08-25T10:49:03;28.10;99.90
4564;DHT22;2294;51.818;8.484;2022-08-25T10:51:42;28.40;99.90
4564;DHT22;2294;51.818;8.484;2022-08-25T10:54:23;28.50;99.90
4564;DHT22;2294;51.818;8.484;2022-08-25T10:56:59;28.40;99.90
4564;DHT22;2294;51.818;8.484;2022-08-25T10:59:50;28.30;99.90
4564;DHT22;2294;51.818;8.484;2022-08-25T11:02:52;28.60;99.90
4564;DHT22;2294;51.818;8.484;2022-08-25T11:05:26;28.80;99.90
4564;DHT22;2294;51.818;8.484;2022-08-25T11:07:59;28.80;99.90
4564;DHT22;2294;51.818;8.484;2022-08-25T11:10:37;28.30;99.90
4564;DHT22;2294;51.818;8.484;2022-08-25T11:13:09;28.70;99.90
4564;DHT22;2294;51.818;8.484;2022-08-25T11:15:42;28.90;99.90
4564;DHT22;2294;51.818;8.484;2022-08-25T11:18:13;29.10;99.90
4564;DHT22;2294;51.818;8.484;2022-08-25T11:20:44;29.20;99.90
4564;DHT22;2294;51.818;8.484;2022-08-25T11:23:19;29.30;99.90
4564;DHT22;2294;51.818;8.484;2022-08-25T11:25:50;29.60;99.90
4564;DHT22;2294;51.818;8.484;2022-08-25T11:28:22;29.70;99.90
4564;DHT22;2294;51.818;8.484;2022-08-25T11:30:55;29.80;99.90
4564;DHT22;2294;51.818;8.484;2022-08-25T11:33:25;30.00;99.90
4564;DHT22;2294;51.818;8.484;2022-08-25T11:35:56;30.20;99.90
4564;DHT22;2294;51.818;8.484;2022-08-25T11:38:37;30.50;99.90
4564;DHT22;2294;51.818;8.484;2022-08-25T11:41:17;30.50;99.90
4564;DHT22;2294;51.818;8.484;2022-08-25T11:44:00;30.20;99.90
4564;DHT22;2294;51.818;8.484;2022-08-25T11:46:43;30.70;99.90
4564;DHT22;2294;51.818;8.484;2022-08-25T11:52:43;29.70;99.90
4564;DHT22;2294;51.818;8.484;2022-08-25T11:55:13;30.20;99.90
4564;DHT22;2294;51.818;8.484;2022-08-25T11:57:41;29.90;99.90
4564;DHT22;2294;51.818;8.484;2022-08-25T12:00:12;30.20;99.90
4564;DHT22;2294;51.818;8.484;2022-08-25T12:02:42;30.50;99.90
4564;DHT22;2294;51.818;8.484;2022-08-25T12:05:50;30.40;99.90
4564;DHT22;2294;51.818;8.484;2022-08-25T12:08:47;30.80;99.90
4564;DHT22;2294;51.818;8.484;2022-08-25T12:11:46;30.90;99.90
4564;DHT22;2294;51.818;8.484;2022-08-25T12:14:16;30.40;99.90
4564;DHT22;2294;51.818;8.484;2022-08-25T12:17:05;30.50;99.90
4564;DHT22;2294;51.818;8.484;2022-08-25T12:19:49;31.00;99.90
4564;DHT22;2294;51.818;8.484;2022-08-25T12:25:45;30.20;99.90
4564;DHT22;2294;51.818;8.484;2022-08-25T12:31:23;29.80;99.90
4564;DHT22;2294;51.818;8.484;2022-08-25T12:34:08;29.50;99.90
4564;DHT22;2294;51.818;8.484;2022-08-25T12:36:35;29.30;99.90
4564;DHT22;2294;51.818;8.484;2022-08-25T12:39:17;30.10;99.90
4564;DHT22;2294;51.818;8.484;2022-08-25T12:41:57;30.80;99.90
4564;DHT22;2294;51.818;8.484;2022-08-25T12:44:41;31.20;99.90
4564;DHT22;2294;51.818;8.484;2022-08-25T12:47:32;31.50;99.90
4564;DHT22;2294;51.818;8.484;2022-08-25T12:50:26;31.60;99.90
4564;DHT22;2294;51.818;8.484;2022-08-25T12:52:55;31.80;99.90
4564;DHT22;2294;51.818;8.484;2022-08-25T12:55:26;30.90;99.90
4564;DHT22;2294;51.818;8.484;2022-08-25T12:57:56;30.70;99.90
4564;DHT22;2294;51.818;8.484;2022-08-25T13:00:27;31.30;99.90
4564;DHT22;2294;51.818;8.484;2022-08-25T13:03:20;31.00;99.90
4564;DHT22;2294;51.818;8.484;2022-08-25T13:12:04;32.10;99.90
4564;DHT22;2294;51.818;8.484;2022-08-25T13:14:39;31.80;99.90
4564;DHT22;2294;51.818;8.484;2022-08-25T13:17:07;31.10;99.90
4564;DHT22;2294;51.818;8.484;2022-08-25T13:19:35;31.70;99.90
4564;DHT22;2294;51.818;8.484;2022-08-25T13:22:10;32.20;99.90
4564;DHT22;2294;51.818;8.484;2022-08-25T13:24:40;32.20;99.90
4564;DHT22;2294;51.818;8.484;2022-08-25T13:27:23;31.50;99.90
4564;DHT22;2294;51.818;8.484;2022-08-25T13:29:53;30.80;99.90
4564;DHT22;2294;51.818;8.484;2022-08-25T13:32:26;31.30;99.90
4564;DHT22;2294;51.818;8.484;2022-08-25T13:35:07;32.00;99.90
4564;DHT22;2294;51.818;8.484;2022-08-25T13:37:36;31.70;99.90
4564;DHT22;2294;51.818;8.484;2022-08-25T13:40:11;30.80;99.90
4564;DHT22;2294;51.818;8.484;2022-08-25T13:42:40;30.00;99.90
4564;DHT22;2294;51.818;8.484;2022-08-25T13:45:12;30.40;99.90
4564;DHT22;2294;51.818;8.484;2022-08-25T13:47:41;31.50;99.90
4564;DHT22;2294;51.818;8.484;2022-08-25T13:50:18;32.30;99.90
4564;DHT22;2294;51.818;8.484;2022-08-25T13:52:48;32.20;99.90
4564;DHT22;2294;51.818;8.484;2022-08-25T13:55:21;31.50;99.90
4564;DHT22;2294;51.818;8.484;2022-08-25T13:57:49;32.00;99.90
4564;DHT22;2294;51.818;8.484;2022-08-25T14:00:28;31.40;99.90
4564;DHT22;2294;51.818;8.484;2022-08-25T14:02:56;31.00;99.90
4564;DHT22;2294;51.818;8.484;2022-08-25T14:05:36;33.20;99.90
4564;DHT22;2294;51.818;8.484;2022-08-25T14:08:05;35.20;99.90
4564;DHT22;2294;51.818;8.484;2022-08-25T14:10:37;35.90;99.90
4564;DHT22;2294;51.818;8.484;2022-08-25T14:13:13;35.80;99.90
4564;DHT22;2294;51.818;8.484;2022-08-25T14:15:43;36.70;99.90
4564;DHT22;2294;51.818;8.484;2022-08-25T14:18:16;35.50;99.90
4564;DHT22;2294;51.818;8.484;2022-08-25T14:20:47;35.70;99.90
4564;DHT22;2294;51.818;8.484;2022-08-25T14:23:17;36.70;99.90
4564;DHT22;2294;51.818;8.484;2022-08-25T14:25:45;36.90;99.90
4564;DHT22;2294;51.818;8.484;2022-08-25T14:28:14;36.70;99.90
4564;DHT22;2294;51.818;8.484;2022-08-25T14:30:45;37.20;99.90
4564;DHT22;2294;51.818;8.484;2022-08-25T14:33:15;37.30;99.90
4564;DHT22;2294;51.818;8.484;2022-08-25T14:35:46;36.70;99.90
4564;DHT22;2294;51.818;8.484;2022-08-25T14:38:14;33.90;99.90
4564;DHT22;2294;51.818;8.484;2022-08-25T14:40:42;32.50;99.90
4564;DHT22;2294;51.818;8.484;2022-08-25T14:43:09;31.70;99.90
4564;DHT22;2294;51.818;8.484;2022-08-25T14:45:39;33.50;99.90
4564;DHT22;2294;51.818;8.484;2022-08-25T14:48:13;35.50;99.90
4564;DHT22;2294;51.818;8.484;2022-08-25T14:50:41;36.70;99.90
4564;DHT22;2294;51.818;8.484;2022-08-25T14:53:09;37.00;99.90
4564;DHT22;2294;51.818;8.484;2022-08-25T14:55:36;37.00;99.10
4564;DHT22;2294;51.818;8.484;2022-08-25T14:58:03;34.60;99.90
4564;DHT22;2294;51.818;8.484;2022-08-25T15:00:39;36.20;99.90
4564;DHT22;2294;51.818;8.484;2022-08-25T15:03:07;36.90;99.90
4564;DHT22;2294;51.818;8.484;2022-08-25T15:05:35;37.50;99.10
4564;DHT22;2294;51.818;8.484;2022-08-25T15:08:02;37.90;98.40
4564;DHT22;2294;51.818;8.484;2022-08-25T15:10:47;37.00;98.50
4564;DHT22;2294;51.818;8.484;2022-08-25T15:13:14;37.10;99.60
4564;DHT22;2294;51.818;8.484;2022-08-25T15:15:43;37.10;99.20
4564;DHT22;2294;51.818;8.484;2022-08-25T15:18:12;37.70;99.20
4564;DHT22;2294;51.818;8.484;2022-08-25T15:20:39;38.40;96.00
4564;DHT22;2294;51.818;8.484;2022-08-25T15:23:06;38.20;97.00
4564;DHT22;2294;51.818;8.484;2022-08-25T15:25:33;37.80;93.40
4564;DHT22;2294;51.818;8.484;2022-08-25T15:28:02;37.80;93.30
4564;DHT22;2294;51.818;8.484;2022-08-25T15:30:29;37.50;93.10
4564;DHT22;2294;51.818;8.484;2022-08-25T15:32:57;37.40;90.90
4564;DHT22;2294;51.818;8.484;2022-08-25T15:35:26;37.10;89.80
4564;DHT22;2294;51.818;8.484;2022-08-25T15:37:53;36.90;90.00
4564;DHT22;2294;51.818;8.484;2022-08-25T15:40:21;37.30;90.30
4564;DHT22;2294;51.818;8.484;2022-08-25T15:42:48;37.30;90.10
4564;DHT22;2294;51.818;8.484;2022-08-25T15:45:15;37.90;90.10
4564;DHT22;2294;51.818;8.484;2022-08-25T15:47:43;36.90;88.90
4564;DHT22;2294;51.818;8.484;2022-08-25T15:50:13;37.50;90.90
4564;DHT22;2294;51.818;8.484;2022-08-25T15:52:43;38.40;90.00
4564;DHT22;2294;51.818;8.484;2022-08-25T15:55:11;38.30;85.90
4564;DHT22;2294;51.818;8.484;2022-08-25T15:57:38;38.50;87.90
4564;DHT22;2294;51.818;8.484;2022-08-25T16:00:07;38.20;84.80
4564;DHT22;2294;51.818;8.484;2022-08-25T16:02:35;37.80;82.00
4564;DHT22;2294;51.818;8.484;2022-08-25T16:05:04;37.90;84.50
4564;DHT22;2294;51.818;8.484;2022-08-25T16:07:32;37.90;82.30
4564;DHT22;2294;51.818;8.484;2022-08-25T16:10:00;37.70;80.70
4564;DHT22;2294;51.818;8.484;2022-08-25T16:12:27;37.60;84.30
4564;DHT22;2294;51.818;8.484;2022-08-25T16:14:54;37.50;77.80
4564;DHT22;2294;51.818;8.484;2022-08-25T16:17:21;37.50;81.80
4564;DHT22;2294;51.818;8.484;2022-08-25T16:19:48;37.60;81.70
4564;DHT22;2294;51.818;8.484;2022-08-25T16:22:15;37.80;80.20
4564;DHT22;2294;51.818;8.484;2022-08-25T16:24:43;37.70;79.30
4564;DHT22;2294;51.818;8.484;2022-08-25T16:27:12;37.60;79.60
4564;DHT22;2294;51.818;8.484;2022-08-25T16:29:40;37.30;82.30
4564;DHT22;2294;51.818;8.484;2022-08-25T16:32:09;37.00;76.20
4564;DHT22;2294;51.818;8.484;2022-08-25T16:34:37;36.40;79.50
4564;DHT22;2294;51.818;8.484;2022-08-25T16:37:04;34.60;87.10
4564;DHT22;2294;51.818;8.484;2022-08-25T16:39:31;33.50;89.60
4564;DHT22;2294;51.818;8.484;2022-08-25T16:41:58;32.90;91.60